Time;durP1;ratioP1;P1;durP2;ratioP2;P2;SDS_P1;SDS_P2;PMS_P1;PMS_P2;Temp;Humidity;BMP_temperature;BMP_pressure;BME280_temperature;BME280_humidity;BME280_pressure;Samples;Min_cycle;Max_cycle;Signal;HPM_P1;HPM_P2
2021/06/21 00:01:45;;;;;;;4.43;1.20;;;;;;;;;;4976216;28;20461;-88
2021/06/21 00:04:12;;;;;;;3.87;1.27;;;;;;;;;;4972397;28;20809;-90
2021/06/21 00:06:39;;;;;;;4.40;1.83;;;;;;;;;;4976464;28;20453;-91
2021/06/21 00:09:06;;;;;;;2.00;1.30;;;16.00;99.90;;;;;;4976155;28;20806;-86
2021/06/21 00:11:33;;;;;;;6.80;1.77;;;;;;;;;;4975317;28;20602;-85
2021/06/21 00:14:00;;;;;;;3.87;1.60;;;;;;;;;;4973432;28;20446;-88
2021/06/21 00:16:29;;;;;;;5.67;1.80;;;;;;;;;;4976472;28;20454;-89
2021/06/21 00:18:56;;;;;;;6.60;1.60;;;;;;;;;;4973008;28;20454;-89
2021/06/21 00:21:24;;;;;;;13.27;2.07;;;;;;;;;;4976074;28;20814;-89
2021/06/21 00:23:50;;;;;;;4.87;1.30;;;16.10;99.90;;;;;;4975794;28;20465;-88
2021/06/21 00:26:17;;;;;;;4.60;1.20;;;;;;;;;;4974671;28;20442;-80
2021/06/21 00:28:45;;;;;;;1.83;1.33;;;;;;;;;;4975621;28;20453;-88
2021/06/21 00:31:12;;;;;;;6.37;1.83;;;;;;;;;;4975491;28;21001;-91
2021/06/21 00:33:40;;;;;;;9.40;2.13;;;16.00;99.90;;;;;;4975828;28;20450;-89
2021/06/21 00:36:07;;;;;;;6.67;1.73;;;15.10;99.90;;;;;;4972755;28;20447;-90
2021/06/21 00:38:34;;;;;;;5.03;1.93;;;;;;;;;;4975571;28;20458;-90
2021/06/21 00:41:01;;;;;;;6.10;1.80;;;15.80;99.90;;;;;;4974396;28;20462;-91
2021/06/21 00:43:28;;;;;;;3.87;1.50;;;16.10;99.90;;;;;;4969401;28;20984;-91
2021/06/21 00:45:55;;;;;;;6.63;1.80;;;;;;;;;;4975397;28;20457;-90
2021/06/21 00:48:23;;;;;;;1.57;1.37;;;;;;;;;;4975361;28;20458;-89
2021/06/21 00:50:51;;;;;;;4.43;2.10;;;16.00;99.90;;;;;;4975197;28;20454;-91
2021/06/21 00:53:19;;;;;;;8.73;2.00;;;15.90;99.90;;;;;;4972833;28;20852;-89
2021/06/21 00:55:46;;;;;;;5.73;1.90;;;15.90;99.90;;;;;;4974199;28;20595;-89
2021/06/21 00:58:13;;;;;;;5.77;1.67;;;15.80;99.90;;;;;;4972456;28;20446;-87
2021/06/21 01:00:40;;;;;;;7.87;2.00;;;;;;;;;;4975417;28;20844;-90
2021/06/21 01:03:08;;;;;;;5.87;1.70;;;;;;;;;;4974792;28;20958;-88
2021/06/21 01:05:36;;;;;;;6.30;2.03;;;16.10;99.90;;;;;;4972241;28;20795;-84
2021/06/21 01:08:05;;;;;;;9.87;2.30;;;16.10;99.90;;;;;;4970896;28;21009;-89
2021/06/21 01:10:32;;;;;;;8.00;1.80;;;;;;;;;;4974075;28;20477;-90
2021/06/21 01:13:19;;;;;;;5.40;2.10;;;16.10;99.90;;;;;;4975174;28;20502;-91
2021/06/21 01:15:57;;;;;;;4.30;1.43;;;16.10;99.90;;;;;;4975243;28;20449;-89
2021/06/21 01:18:29;;;;;;;4.73;1.97;;;16.00;99.90;;;;;;4972327;28;20846;-90
2021/06/21 01:21:26;;;;;;;4.00;1.83;;;16.00;99.90;;;;;;4974882;28;20561;-89
2021/06/21 01:24:15;;;;;;;5.47;1.63;;;16.20;99.90;;;;;;4974910;28;20446;-88
2021/06/21 01:26:46;;;;;;;5.00;1.93;;;16.20;99.90;;;;;;4943942;28;20474;-90
2021/06/21 01:29:43;;;;;;;7.90;2.27;;;16.10;99.90;;;;;;4974733;28;20458;-89
2021/06/21 01:32:18;;;;;;;10.70;1.97;;;16.70;99.90;;;;;;4973608;28;20503;-81
2021/06/21 01:34:51;;;;;;;6.33;1.90;;;15.20;99.90;;;;;;4974274;28;20458;-90
2021/06/21 01:37:20;;;;;;;4.93;1.43;;;16.00;99.90;;;;;;4974952;28;20442;-91
2021/06/21 01:39:49;;;;;;;11.77;1.97;;;16.00;99.90;;;;;;4974736;28;20453;-89
2021/06/21 01:42:20;;;;;;;8.53;1.90;;;16.20;99.90;;;;;;4973944;28;20450;-91
2021/06/21 01:44:52;;;;;;;4.60;1.70;;;15.70;99.90;;;;;;4974656;28;20451;-90
2021/06/21 01:47:21;;;;;;;6.10;1.50;;;16.20;99.90;;;;;;4970609;28;20504;-91
2021/06/21 01:49:50;;;;;;;9.63;1.50;;;16.20;99.90;;;;;;4971840;28;20808;-88
2021/06/21 01:52:19;;;;;;;8.43;2.13;;;16.10;99.90;;;;;;4974367;28;21042;-90
2021/06/21 01:54:54;;;;;;;5.37;1.57;;;16.20;99.90;;;;;;4974899;28;20473;-91
2021/06/21 01:57:24;;;;;;;10.40;2.23;;;16.00;99.90;;;;;;4974375;28;20488;-87
2021/06/21 01:59:52;;;;;;;10.37;2.07;;;16.00;99.90;;;;;;4971365;28;20458;-90
2021/06/21 02:02:21;;;;;;;10.23;2.37;;;16.00;99.90;;;;;;4974609;28;20434;-89
2021/06/21 02:04:52;;;;;;;10.60;2.10;;;16.30;99.90;;;;;;4974335;28;20454;-89
2021/06/21 02:07:20;;;;;;;5.10;1.70;;;16.30;99.90;;;;;;4974370;28;20465;-89
2021/06/21 02:09:49;;;;;;;5.63;1.60;;;15.50;99.90;;;;;;4971670;28;20450;-89
2021/06/21 02:12:19;;;;;;;11.93;2.07;;;16.10;99.90;;;;;;4973225;28;20494;-87
2021/06/21 02:14:48;;;;;;;4.43;1.90;;;16.00;99.90;;;;;;4974211;28;20451;-87
2021/06/21 02:17:15;;;;;;;4.17;1.70;;;;;;;;;;4974309;28;20485;-89
2021/06/21 02:19:44;;;;;;;7.77;2.00;;;16.00;99.90;;;;;;4974342;28;20925;-90
2021/06/21 02:22:12;;;;;;;4.53;2.20;;;16.00;99.90;;;;;;4971632;28;20510;-83
2021/06/21 02:24:40;;;;;;;4.20;2.17;;;;;;;;;;4974299;28;20453;-90
2021/06/21 02:27:08;;;;;;;7.03;2.07;;;16.00;99.90;;;;;;4973287;28;20489;-89
2021/06/21 02:29:36;;;;;;;4.90;2.13;;;;;;;;;;4974528;28;20454;-93
2021/06/21 02:32:03;;;;;;;5.40;2.03;;;;;;;;;;4973819;28;20517;-84
2021/06/21 02:34:31;;;;;;;5.47;2.30;;;16.20;99.90;;;;;;4974446;28;20458;-92
2021/06/21 02:36:58;;;;;;;6.57;2.27;;;;;;;;;;4974130;28;20461;-84
2021/06/21 02:39:26;;;;;;;7.83;1.60;;;16.10;99.90;;;;;;4971173;28;20450;-89
2021/06/21 02:41:54;;;;;;;7.30;2.13;;;;;;;;;;4972886;28;20466;-87
2021/06/21 02:44:21;;;;;;;4.83;1.80;;;16.00;99.90;;;;;;4973824;28;20801;-90
2021/06/21 02:46:48;;;;;;;10.50;2.03;;;;;;;;;;4974829;28;20476;-90
2021/06/21 02:49:15;;;;;;;8.43;2.00;;;16.30;99.90;;;;;;4977586;28;20445;-88
2021/06/21 02:51:47;;;;;;;5.97;1.87;;;15.80;99.90;;;;;;4972980;28;20470;-85
2021/06/21 02:54:19;;;;;;;10.57;2.23;;;16.70;99.90;;;;;;4977299;28;20508;-87
2021/06/21 02:56:56;;;;;;;5.27;1.50;;;15.90;99.90;;;;;;4976045;28;20453;-90
2021/06/21 02:59:25;;;;;;;9.27;1.70;;;15.10;99.90;;;;;;4977304;28;20458;-86
2021/06/21 03:01:54;;;;;;;9.10;2.00;;;16.00;99.90;;;;;;4977607;28;20461;-89
2021/06/21 03:04:23;;;;;;;6.80;2.60;;;16.00;99.90;;;;;;4974509;28;20934;-88
2021/06/21 03:06:52;;;;;;;10.10;2.50;;;16.10;99.90;;;;;;4977035;28;20464;-89
2021/06/21 03:09:20;;;;;;;8.00;2.17;;;15.90;99.90;;;;;;4977183;28;20452;-88
2021/06/21 03:11:53;;;;;;;3.50;1.40;;;16.10;99.90;;;;;;4976148;28;20505;-86
2021/06/21 03:14:23;;;;;;;8.43;1.97;;;15.80;99.90;;;;;;4977055;28;20450;-88
2021/06/21 03:16:52;;;;;;;5.57;1.50;;;15.90;99.90;;;;;;4976871;28;20442;-91
2021/06/21 03:19:19;;;;;;;2.10;0.93;;;16.10;99.90;;;;;;4977341;28;20446;-85
2021/06/21 03:21:46;;;;;;;7.10;1.90;;;15.30;99.90;;;;;;4976896;28;20465;-88
2021/06/21 03:24:15;;;;;;;8.10;2.13;;;15.90;99.90;;;;;;4976962;28;20449;-91
2021/06/21 03:26:43;;;;;;;4.73;1.67;;;16.00;99.90;;;;;;4975385;28;20532;-88
2021/06/21 03:29:15;;;;;;;7.90;2.20;;;15.90;99.90;;;;;;4976892;28;20458;-88
2021/06/21 03:31:44;;;;;;;11.57;1.90;;;16.20;99.90;;;;;;4976583;28;20915;-88
2021/06/21 03:34:11;;;;;;;4.83;1.77;;;16.60;99.90;;;;;;4976369;28;20457;-85
2021/06/21 03:36:38;;;;;;;4.23;1.40;;;16.10;99.90;;;;;;4973659;28;20446;-88
2021/06/21 03:39:05;;;;;;;4.77;1.53;;;16.00;99.90;;;;;;4973674;28;20480;-89
2021/06/21 03:41:32;;;;;;;8.27;1.80;;;;;;;;;;4972392;28;20505;-88
2021/06/21 03:43:59;;;;;;;4.87;1.43;;;16.30;99.90;;;;;;4976348;28;20451;-85
2021/06/21 03:46:27;;;;;;;6.30;2.03;;;16.00;99.90;;;;;;4976313;28;20449;-89
2021/06/21 03:48:54;;;;;;;8.13;1.53;;;16.10;99.90;;;;;;4976315;28;20450;-87
2021/06/21 03:51:21;;;;;;;9.40;1.70;;;;;;;;;;4976320;28;20470;-87
2021/06/21 03:53:49;;;;;;;7.40;2.20;;;;;;;;;;4976155;28;20556;-89
2021/06/21 03:56:16;;;;;;;4.00;1.50;;;;;;;;;;4975115;28;20450;-87
2021/06/21 03:58:45;;;;;;;3.63;1.43;;;16.40;99.90;;;;;;4974275;28;20442;-87
2021/06/21 04:01:12;;;;;;;5.37;2.10;;;16.40;99.90;;;;;;4977763;28;20455;-89
2021/06/21 04:03:40;;;;;;;7.60;1.83;;;16.10;99.90;;;;;;4975840;28;20508;-87
2021/06/21 04:06:07;;;;;;;4.53;1.97;;;16.30;99.90;;;;;;4981264;28;21073;-86
2021/06/21 04:08:34;;;;;;;4.30;1.30;;;16.10;99.90;;;;;;4986150;28;20963;-85
2021/06/21 04:11:01;;;;;;;8.40;2.60;;;;;;;;;;4981524;28;20537;-84
2021/06/21 04:13:29;;;;;;;3.20;1.40;;;;;;;;;;4985526;28;20456;-86
2021/06/21 04:15:58;;;;;;;5.77;1.30;;;16.20;99.90;;;;;;4985154;28;20913;-87
2021/06/21 04:18:25;;;;;;;6.57;2.63;;;;;;;;;;4986155;28;20449;-84
2021/06/21 04:20:57;;;;;;;6.20;1.70;;;16.20;99.90;;;;;;4982276;28;20442;-89
2021/06/21 04:23:25;;;;;;;7.83;1.47;;;;;;;;;;4978424;28;20539;-79
2021/06/21 04:25:52;;;;;;;7.10;2.10;;;;;;;;;;4983847;28;20457;-85
2021/06/21 04:28:19;;;;;;;5.33;1.50;;;;;;;;;;4983639;28;20470;-86
2021/06/21 04:30:48;;;;;;;11.03;1.77;;;16.40;99.90;;;;;;4985187;28;20456;-86
2021/06/21 04:33:19;;;;;;;6.27;2.30;;;;;;;;;;4985863;28;20453;-89
2021/06/21 04:35:49;;;;;;;6.97;2.13;;;;;;;;;;4982060;28;20442;-87
2021/06/21 04:38:23;;;;;;;5.90;2.60;;;16.30;99.90;;;;;;4984484;28;20945;-89
2021/06/21 04:40:51;;;;;;;5.03;2.50;;;16.20;99.90;;;;;;4984923;28;20450;-90
2021/06/21 04:43:19;;;;;;;10.60;1.70;;;16.50;99.90;;;;;;4981828;28;20481;-84
2021/06/21 04:45:46;;;;;;;9.60;1.90;;;;;;;;;;4985869;28;20820;-90
2021/06/21 04:48:13;;;;;;;7.33;1.67;;;;;;;;;;4983651;28;20442;-90
2021/06/21 04:50:41;;;;;;;3.63;2.13;;;;;;;;;;4982901;28;20479;-87
2021/06/21 04:53:11;;;;;;;5.60;2.03;;;16.30;99.90;;;;;;4984004;28;20461;-86
2021/06/21 04:55:40;;;;;;;9.30;2.77;;;16.30;99.90;;;;;;4993198;28;20453;-85
2021/06/21 04:58:07;;;;;;;4.30;1.07;;;;;;;;;;4990222;28;21060;-83
2021/06/21 05:00:34;;;;;;;1.77;1.40;;;;;;;;;;4993829;28;20464;-85
2021/06/21 05:03:01;;;;;;;4.10;1.43;;;;;;;;;;4994651;28;20485;-86
2021/06/21 05:05:28;;;;;;;8.70;1.90;;;;;;;;;;4994452;28;20445;-86
2021/06/21 05:07:56;;;;;;;6.47;1.90;;;17.20;99.90;;;;;;4994877;28;20825;-88
2021/06/21 05:10:25;;;;;;;4.23;2.10;;;17.30;99.90;;;;;;4992919;28;20493;-87
2021/06/21 05:12:53;;;;;;;5.30;2.23;;;17.20;99.90;;;;;;4995386;28;20445;-86
2021/06/21 05:15:21;;;;;;;3.63;1.60;;;;;;;;;;4994725;28;20460;-86
2021/06/21 05:17:48;;;;;;;4.40;1.73;;;;;;;;;;4994873;28;20524;-86
2021/06/21 05:20:15;;;;;;;10.00;2.67;;;17.20;99.90;;;;;;4994505;28;20902;-87
2021/06/21 05:22:43;;;;;;;2.97;1.43;;;17.60;99.90;;;;;;4990909;28;20469;-86
2021/06/21 05:25:11;;;;;;;5.23;1.53;;;17.70;99.90;;;;;;4993517;28;20456;-89
2021/06/21 05:27:38;;;;;;;4.27;1.50;;;;;;;;;;4994196;28;20485;-89
2021/06/21 05:30:09;;;;;;;1.80;1.20;;;17.70;99.90;;;;;;4989028;28;20441;-91
2021/06/21 05:32:36;;;;;;;3.80;1.60;;;17.70;99.90;;;;;;4987223;28;20450;-89
2021/06/21 05:35:03;;;;;;;5.60;1.93;;;;;;;;;;4994669;28;20456;-88
2021/06/21 05:37:30;;;;;;;4.47;1.53;;;18.00;99.90;;;;;;4994561;28;20449;-86
2021/06/21 05:39:57;;;;;;;4.93;2.20;;;;;;;;;;4990651;28;20487;-83
2021/06/21 05:42:24;;;;;;;6.40;1.97;;;18.20;99.90;;;;;;4993750;28;20457;-87
2021/06/21 05:44:51;;;;;;;6.60;2.23;;;;;;;;;;4990818;28;20453;-89
2021/06/21 05:47:19;;;;;;;6.43;2.10;;;18.80;99.90;;;;;;4993637;28;20453;-87
2021/06/21 05:49:46;;;;;;;6.47;1.07;;;;;;;;;;4990671;28;20471;-85
2021/06/21 05:52:13;;;;;;;7.60;1.93;;;;;;;;;;4990296;28;20988;-86
2021/06/21 05:54:40;;;;;;;8.10;1.37;;;17.90;99.90;;;;;;4993194;28;20460;-85
2021/06/21 05:57:07;;;;;;;7.00;2.13;;;;;;;;;;4992549;28;20460;-84
2021/06/21 05:59:34;;;;;;;9.23;2.23;;;18.70;99.90;;;;;;4993980;28;20452;-82
2021/06/21 06:02:01;;;;;;;3.37;1.57;;;18.80;99.90;;;;;;4993251;28;20471;-86
2021/06/21 06:04:30;;;;;;;4.00;1.80;;;18.90;99.90;;;;;;4993265;28;20504;-86
2021/06/21 06:06:57;;;;;;;4.17;1.90;;;;;;;;;;4993963;28;20532;-87
2021/06/21 06:09:24;;;;;;;8.40;2.03;;;;;;;;;;4993409;28;20461;-89
2021/06/21 06:11:51;;;;;;;3.00;1.20;;;20.30;99.90;;;;;;4992520;28;20465;-88
2021/06/21 06:14:18;;;;;;;8.70;1.77;;;;;;;;;;4990541;28;20449;-87
2021/06/21 06:16:46;;;;;;;3.23;1.70;;;;;;;;;;4993756;28;20511;-89
2021/06/21 06:19:13;;;;;;;4.43;1.60;;;;;;;;;;4993806;28;20456;-90
2021/06/21 06:21:42;;;;;;;3.43;1.40;;;21.00;99.90;;;;;;4996294;28;20445;-88
2021/06/21 06:24:09;;;;;;;3.10;1.37;;;20.80;99.90;;;;;;4998285;28;20496;-88
2021/06/21 06:26:36;;;;;;;4.80;1.50;;;21.20;99.90;;;;;;4994197;28;20481;-90
2021/06/21 06:29:04;;;;;;;8.17;1.93;;;;;;;;;;4998625;28;20897;-88
2021/06/21 06:31:31;;;;;;;5.90;1.70;;;;;;;;;;4997779;28;20453;-89
2021/06/21 06:33:59;;;;;;;4.13;2.17;;;;;;;;;;4998352;28;20464;-91
2021/06/21 06:36:25;;;;;;;4.47;1.60;;;21.20;99.90;;;;;;4998217;28;20528;-86
2021/06/21 06:38:53;;;;;;;14.10;2.10;;;21.50;99.90;;;;;;4998329;28;20542;-85
2021/06/21 06:41:21;;;;;;;4.77;1.37;;;;;;;;;;4998658;28;20500;-89
2021/06/21 06:43:48;;;;;;;8.77;1.30;;;;;;;;;;4995313;28;20818;-90
2021/06/21 06:46:15;;;;;;;4.03;1.20;;;;;;;;;;4998047;28;20827;-91
2021/06/21 06:48:42;;;;;;;2.73;1.27;;;;;;;;;;4997172;28;20449;-89
2021/06/21 06:51:09;;;;;;;5.30;1.03;;;;;;;;;;4997198;28;20841;-88
2021/06/21 06:53:41;;;;;;;6.37;2.23;;;20.70;99.90;;;;;;4997942;28;20445;-86
2021/06/21 06:58:56;;;;;;;3.47;1.23;;;;;;;;;;4979786;28;20540;-89
2021/06/21 07:01:23;;;;;;;6.47;1.73;;;;;;;;;;4983562;28;20442;-92
2021/06/21 07:03:50;;;;;;;3.03;1.20;;;;;;;;;;4976324;28;20502;-88
2021/06/21 07:06:18;;;;;;;3.63;1.30;;;;;;;;;;4977854;28;20446;-89
2021/06/21 07:08:45;;;;;;;1.63;0.80;;;;;;;;;;4977923;28;20457;-88
2021/06/21 07:11:14;;;;;;;4.40;1.30;;;21.20;99.90;;;;;;4974982;28;20952;-89
2021/06/21 07:13:41;;;;;;;6.00;1.13;;;;;;;;;;4978454;28;20465;-88
2021/06/21 07:16:08;;;;;;;7.70;1.70;;;;;;;;;;4979791;28;20819;-84
2021/06/21 07:18:35;;;;;;;2.63;1.40;;;;;;;;;;4979019;28;20453;-89
2021/06/21 07:21:02;;;;;;;4.10;1.50;;;;;;;;;;4980275;28;20568;-90
2021/06/21 07:23:29;;;;;;;6.17;1.60;;;;;;;;;;4978617;28;20497;-92
2021/06/21 07:25:57;;;;;;;3.03;1.23;;;;;;;;;;4977227;28;20446;-92
2021/06/21 07:28:25;;;;;;;4.10;1.40;;;22.90;99.90;;;;;;4979062;28;20478;-91
2021/06/21 07:30:52;;;;;;;4.00;1.50;;;;;;;;;;4984198;28;20934;-90
2021/06/21 07:33:19;;;;;;;3.90;1.40;;;;;;;;;;4980567;28;20446;-88
2021/06/21 07:35:46;;;;;;;7.50;1.37;;;;;;;;;;4977673;28;20454;-88
2021/06/21 07:38:13;;;;;;;3.43;1.70;;;;;;;;;;4978062;28;20454;-88
2021/06/21 07:40:40;;;;;;;3.47;1.43;;;22.50;99.90;;;;;;4972776;28;20959;-82
2021/06/21 07:43:07;;;;;;;4.27;1.83;;;;;;;;;;4976276;28;20445;-84
2021/06/21 07:45:35;;;;;;;2.70;1.20;;;21.80;99.90;;;;;;4976624;28;20477;-84
2021/06/21 07:48:03;;;;;;;9.13;1.30;;;;;;;;;;4973714;28;20939;-85
2021/06/21 07:50:31;;;;;;;4.63;1.60;;;22.30;99.90;;;;;;4976630;28;20474;-83
2021/06/21 07:52:58;;;;;;;2.10;0.90;;;22.10;99.90;;;;;;4950610;28;20469;-86
2021/06/21 07:55:27;;;;;;;2.90;1.03;;;22.00;99.90;;;;;;4974698;28;20462;-86
2021/06/21 07:57:54;;;;;;;3.60;1.30;;;;;;;;;;4976082;28;20465;-90
2021/06/21 08:00:23;;;;;;;5.13;1.27;;;22.50;99.90;;;;;;4976286;28;20454;-86
2021/06/21 08:02:52;;;;;;;3.93;1.33;;;22.40;99.90;;;;;;4976063;28;20450;-86
2021/06/21 08:05:19;;;;;;;5.00;1.60;;;;;;;;;;4975881;28;20505;-88
2021/06/21 08:07:47;;;;;;;3.00;0.87;;;;;;;;;;4975953;28;20561;-86
2021/06/21 08:10:15;;;;;;;4.73;1.53;;;22.40;99.90;;;;;;4975382;28;20460;-88
2021/06/21 08:12:43;;;;;;;3.73;1.20;;;22.50;99.90;;;;;;4974599;28;20472;-91
2021/06/21 08:15:11;;;;;;;5.37;1.43;;;22.50;99.90;;;;;;4978739;28;20462;-87
2021/06/21 08:17:39;;;;;;;2.77;1.37;;;22.40;99.90;;;;;;4984001;28;20458;-87
2021/06/21 08:20:13;;;;;;;3.87;1.40;;;21.50;99.90;;;;;;4972886;28;20447;-86
2021/06/21 08:22:40;;;;;;;3.67;1.20;;;21.20;99.90;;;;;;4975744;28;20456;-89
2021/06/21 08:25:08;;;;;;;2.57;1.10;;;21.40;99.90;;;;;;4971882;28;20501;-86
2021/06/21 08:27:35;;;;;;;3.50;1.30;;;21.40;99.90;;;;;;4951325;28;20496;-89
2021/06/21 08:30:02;;;;;;;2.53;1.23;;;;;;;;;;4975742;28;20465;-87
2021/06/21 08:32:29;;;;;;;5.30;1.50;;;22.00;99.90;;;;;;4977537;28;20442;-91
2021/06/21 08:34:56;;;;;;;1.50;1.23;;;23.00;99.90;;;;;;4995171;28;20956;-90
2021/06/21 08:37:25;;;;;;;2.63;1.20;;;22.90;99.90;;;;;;4996128;28;20823;-89
2021/06/21 08:39:52;;;;;;;2.17;1.33;;;;;;;;;;4981204;28;20797;-88
2021/06/21 08:42:20;;;;;;;3.80;1.60;;;23.50;99.90;;;;;;4971989;28;20462;-89
2021/06/21 08:44:48;;;;;;;5.60;1.47;;;23.60;99.90;;;;;;4977514;28;20501;-88
2021/06/21 08:47:19;;;;;;;3.83;1.10;;;24.50;99.90;;;;;;4975987;28;20468;-90
2021/06/21 08:49:48;;;;;;;4.07;1.30;;;24.70;99.90;;;;;;4975927;28;20869;-86
2021/06/21 08:52:19;;;;;;;1.77;1.10;;;24.70;99.90;;;;;;4976061;28;20454;-88
2021/06/21 08:54:48;;;;;;;4.17;1.03;;;23.50;99.90;;;;;;4975622;28;20457;-86
2021/06/21 08:57:15;;;;;;;7.50;1.23;;;23.70;99.90;;;;;;4971849;28;20505;-91
2021/06/21 08:59:42;;;;;;;2.80;1.07;;;;;;;;;;4975314;28;20481;-91
2021/06/21 09:02:13;;;;;;;2.50;1.40;;;23.90;99.90;;;;;;4975451;28;20469;-90
2021/06/21 09:04:41;;;;;;;3.20;1.43;;;24.00;99.90;;;;;;4976030;28;20504;-90
2021/06/21 09:07:16;;;;;;;6.63;2.23;;;24.00;99.90;;;;;;4965489;28;20987;-89
2021/06/21 09:09:43;;;;;;;6.53;1.40;;;24.00;99.90;;;;;;4981830;28;20445;-92
2021/06/21 09:12:13;;;;;;;3.70;1.83;;;23.90;99.90;;;;;;4990315;28;20452;-89
2021/06/21 09:14:40;;;;;;;1.90;1.07;;;23.90;99.90;;;;;;4996111;28;20445;-89
2021/06/21 09:17:09;;;;;;;2.07;1.33;;;24.30;99.90;;;;;;4996209;28;20446;-92
2021/06/21 09:19:54;;;;;;;5.43;1.60;;;24.40;99.90;;;;;;4995353;28;20748;-92
2021/06/21 09:22:39;;;;;;;4.73;1.40;;;24.80;99.90;;;;;;4993231;28;20516;-91
2021/06/21 09:25:09;;;;;;;3.83;2.07;;;24.70;99.90;;;;;;4994362;28;20484;-93
2021/06/21 09:27:40;;;;;;;7.40;1.70;;;25.10;99.90;;;;;;4994744;28;20838;-94
2021/06/21 09:30:09;;;;;;;3.30;1.47;;;24.40;99.90;;;;;;4994262;28;20464;-88
2021/06/21 09:32:45;;;;;;;2.77;1.50;;;24.00;99.90;;;;;;4995561;28;20979;-90
2021/06/21 09:35:34;;;;;;;3.43;1.43;;;24.00;99.90;;;;;;4994938;28;20460;-89
2021/06/21 09:38:05;;;;;;;1.60;1.20;;;24.50;99.90;;;;;;4994984;28;20501;-88
2021/06/21 09:40:34;;;;;;;3.57;1.57;;;24.50;99.90;;;;;;4993617;28;20496;-90
2021/06/21 09:43:19;;;;;;;4.43;1.37;;;24.80;99.90;;;;;;4995033;28;20465;-88
2021/06/21 09:46:01;;;;;;;2.37;1.27;;;24.60;99.90;;;;;;4994812;28;20973;-92
2021/06/21 09:48:31;;;;;;;4.50;1.60;;;25.60;99.90;;;;;;4999180;28;20457;-90
2021/06/21 09:50:58;;;;;;;3.27;1.93;;;25.90;99.90;;;;;;4987629;28;20440;-85
2021/06/21 09:53:28;;;;;;;3.03;1.50;;;25.30;99.90;;;;;;4970102;28;20473;-89
2021/06/21 09:55:55;;;;;;;2.77;1.03;;;25.40;99.90;;;;;;4969963;28;20815;-86
2021/06/21 09:58:22;;;;;;;5.60;1.43;;;24.90;99.90;;;;;;4969731;28;20461;-86
2021/06/21 10:00:51;;;;;;;5.20;1.33;;;25.30;99.90;;;;;;4973864;28;20481;-90
2021/06/21 10:03:20;;;;;;;4.17;1.50;;;26.00;99.30;;;;;;4961633;28;20470;-86
2021/06/21 10:06:05;;;;;;;2.30;1.70;;;26.50;99.60;;;;;;4954210;29;20505;-87
2021/06/21 10:08:45;;;;;;;6.17;1.60;;;25.60;99.10;;;;;;4954060;29;20591;-82
2021/06/21 10:11:29;;;;;;;2.40;1.40;;;26.60;99.90;;;;;;4970881;28;20442;-85
2021/06/21 10:13:56;;;;;;;2.53;1.53;;;26.70;98.70;;;;;;4972250;28;21017;-89
2021/06/21 10:16:23;;;;;;;3.83;1.57;;;26.50;98.10;;;;;;4973210;28;20450;-88
2021/06/21 10:18:50;;;;;;;3.20;1.60;;;26.70;98.20;;;;;;4970359;28;20481;-87
2021/06/21 10:21:17;;;;;;;2.53;1.60;;;27.10;97.10;;;;;;4973291;28;20443;-87
2021/06/21 10:23:45;;;;;;;3.13;1.70;;;27.70;97.20;;;;;;4973491;28;20461;-89
2021/06/21 10:26:12;;;;;;;2.60;1.20;;;27.70;96.00;;;;;;4972182;28;20505;-87
2021/06/21 10:28:39;;;;;;;3.80;1.60;;;28.20;96.10;;;;;;4973662;28;20449;-88
2021/06/21 10:31:06;;;;;;;2.67;1.20;;;28.10;99.90;;;;;;4973299;28;20506;-87
2021/06/21 10:33:34;;;;;;;3.23;1.17;;;27.90;94.70;;;;;;4973632;28;20450;-89
2021/06/21 10:36:04;;;;;;;3.40;1.40;;;27.70;95.10;;;;;;4975176;28;20446;-89
2021/06/21 10:38:31;;;;;;;1.83;1.60;;;25.90;99.90;;;;;;4953666;28;20455;-90
2021/06/21 10:41:02;;;;;;;2.63;1.70;;;26.60;97.70;;;;;;4953349;29;20474;-88
2021/06/21 10:43:49;;;;;;;6.13;1.60;;;26.60;97.80;;;;;;4951274;29;20868;-89
2021/06/21 10:46:26;;;;;;;2.10;1.47;;;27.10;95.90;;;;;;4954204;29;20490;-88
2021/06/21 10:49:34;;;;;;;4.63;1.60;;;27.70;95.80;;;;;;4951065;29;20454;-86
2021/06/21 10:52:12;;;;;;;3.63;1.50;;;29.00;99.90;;;;;;4951474;29;20539;-87
2021/06/21 10:54:39;;;;;;;2.83;1.50;;;27.10;99.90;;;;;;4954019;29;20458;-87
2021/06/21 10:57:18;;;;;;;3.47;1.70;;;27.70;99.90;;;;;;4952939;29;20494;-86
2021/06/21 11:00:12;;;;;;;3.77;1.40;;;27.40;94.80;;;;;;4954023;29;20816;-90
2021/06/21 11:02:40;;;;;;;3.57;1.90;;;27.50;94.40;;;;;;4954885;29;20455;-90
2021/06/21 11:05:09;;;;;;;2.90;1.40;;;27.40;94.80;;;;;;4954576;29;20498;-84
2021/06/21 11:07:37;;;;;;;3.00;1.40;;;26.80;94.90;;;;;;4954898;28;20461;-86
2021/06/21 11:10:07;;;;;;;2.20;1.60;;;26.30;99.90;;;;;;4956303;29;20454;-86
2021/06/21 11:12:41;;;;;;;3.17;1.30;;;25.30;99.90;;;;;;4957168;29;20459;-82
2021/06/21 11:15:12;;;;;;;3.10;1.13;;;25.80;99.90;;;;;;4956870;29;20469;-83
2021/06/21 11:17:55;;;;;;;2.10;1.20;;;25.80;95.90;;;;;;4957150;29;20451;-86
2021/06/21 11:20:33;;;;;;;2.50;1.40;;;26.20;99.90;;;;;;4955540;29;20936;-81
2021/06/21 11:23:01;;;;;;;2.17;1.40;;;26.10;97.60;;;;;;4957361;29;20461;-85
2021/06/21 11:25:31;;;;;;;1.90;1.50;;;26.70;95.40;;;;;;4953133;29;20490;-83
2021/06/21 11:28:00;;;;;;;3.87;1.80;;;28.10;99.90;;;;;;4957221;29;20486;-85
2021/06/21 11:30:40;;;;;;;2.93;1.30;;;27.30;99.90;;;;;;4957528;29;20471;-87
2021/06/21 11:33:10;;;;;;;2.97;1.53;;;26.80;99.90;;;;;;4957458;29;20455;-83
2021/06/21 11:35:59;;;;;;;1.97;1.40;;;26.50;99.90;;;;;;4957512;29;20966;-88
2021/06/21 11:38:32;;;;;;;4.23;1.47;;;27.20;99.90;;;;;;4957142;29;20475;-83
2021/06/21 11:41:23;;;;;;;2.70;1.20;;;28.10;99.90;;;;;;4960059;29;20459;-90
2021/06/21 11:43:54;;;;;;;1.67;1.30;;;27.70;99.90;;;;;;4958039;29;20455;-84
2021/06/21 11:46:50;;;;;;;2.83;1.43;;;26.90;93.90;;;;;;4957567;29;20490;-90
2021/06/21 11:49:19;;;;;;;2.10;1.50;;;28.00;92.80;;;;;;4957611;29;20818;-86
2021/06/21 11:52:00;;;;;;;1.97;1.40;;;27.20;99.90;;;;;;4956870;29;20451;-82
2021/06/21 11:54:28;;;;;;;2.27;1.50;;;;;;;;;;4957695;29;20473;-87
2021/06/21 11:56:56;;;;;;;3.17;1.90;;;28.30;99.90;;;;;;4953451;29;20503;-85
2021/06/21 11:59:34;;;;;;;2.60;1.20;;;28.30;92.70;;;;;;4957130;29;21118;-85
2021/06/21 12:02:03;;;;;;;1.83;1.20;;;28.60;92.70;;;;;;4956881;29;20478;-85
2021/06/21 12:04:30;;;;;;;4.30;1.87;;;;;;;;;;4956568;29;20463;-85
2021/06/21 12:06:57;;;;;;;4.83;1.90;;;;;;;;;;4956670;29;20797;-83
2021/06/21 12:09:24;;;;;;;6.50;1.80;;;;;;;;;;4956519;29;20447;-84
2021/06/21 12:11:53;;;;;;;2.23;1.60;;;26.70;99.90;;;;;;4955354;29;20447;-85
2021/06/21 12:14:21;;;;;;;3.27;1.43;;;26.10;99.90;;;;;;4956462;29;20455;-85
2021/06/21 12:16:51;;;;;;;4.63;1.30;;;26.20;97.40;;;;;;4956574;29;20459;-90
2021/06/21 12:19:24;;;;;;;5.60;1.80;;;26.20;99.50;;;;;;4957471;28;20447;-90
2021/06/21 12:21:52;;;;;;;2.80;1.40;;;;;;;;;;4956895;29;20458;-86
2021/06/21 12:24:24;;;;;;;5.20;2.00;;;25.70;98.40;;;;;;4957010;29;20511;-95
2021/06/21 12:26:52;;;;;;;2.77;1.30;;;26.00;98.20;;;;;;4955564;29;20511;-91
2021/06/21 12:29:30;;;;;;;4.23;2.30;;;26.20;99.10;;;;;;4957128;29;20462;-91
2021/06/21 12:32:01;;;;;;;1.90;1.57;;;26.50;98.40;;;;;;4957071;29;20443;-87
2021/06/21 12:34:52;;;;;;;4.80;1.83;;;26.50;95.90;;;;;;4957891;29;20447;-88
2021/06/21 12:37:24;;;;;;;3.20;1.90;;;26.80;99.90;;;;;;4964434;28;20459;-88
2021/06/21 12:39:53;;;;;;;3.63;1.40;;;27.70;94.00;;;;;;4972090;28;20450;-85
2021/06/21 12:42:21;;;;;;;2.33;1.43;;;;;;;;;;4974768;28;20458;-86
2021/06/21 12:44:49;;;;;;;4.37;2.07;;;27.50;94.30;;;;;;4975768;28;20814;-86
2021/06/21 12:47:24;;;;;;;2.43;1.80;;;27.80;99.90;;;;;;4975924;28;20457;-86
2021/06/21 12:49:52;;;;;;;1.90;1.50;;;28.20;95.30;;;;;;4974951;28;20460;-86
2021/06/21 12:52:21;;;;;;;1.93;1.40;;;28.30;92.60;;;;;;4971001;28;20540;-86
2021/06/21 12:54:48;;;;;;;2.07;1.57;;;;;;;;;;4972135;28;20883;-86
2021/06/21 12:57:15;;;;;;;3.63;1.60;;;;;;;;;;4968188;28;20475;-87
2021/06/21 12:59:43;;;;;;;2.63;1.97;;;27.20;93.70;;;;;;4974753;28;20961;-87
2021/06/21 13:02:23;;;;;;;2.63;1.60;;;26.40;94.60;;;;;;4974922;28;20454;-89
2021/06/21 13:05:02;;;;;;;1.40;1.20;;;26.10;97.90;;;;;;4974821;28;20454;-88
2021/06/21 13:07:29;;;;;;;2.67;1.60;;;;;;;;;;4974738;28;20461;-89
2021/06/21 13:09:57;;;;;;;2.83;1.63;;;26.00;97.60;;;;;;4975152;28;20450;-87
2021/06/21 13:12:26;;;;;;;3.70;1.70;;;26.00;99.50;;;;;;4975212;28;20446;-87
2021/06/21 13:15:10;;;;;;;10.63;2.03;;;26.30;97.40;;;;;;4976702;28;20471;-91
2021/06/21 13:17:39;;;;;;;2.27;1.90;;;26.10;97.20;;;;;;4976567;28;20454;-91
2021/06/21 13:20:09;;;;;;;2.23;1.47;;;26.30;96.80;;;;;;4973396;28;20458;-89
2021/06/21 13:22:36;;;;;;;2.70;1.40;;;;;;;;;;4975642;28;20451;-91
2021/06/21 13:25:21;;;;;;;5.07;1.90;;;26.30;96.90;;;;;;4974774;28;20545;-90
2021/06/21 13:27:59;;;;;;;4.53;1.40;;;26.10;97.00;;;;;;4973708;28;20482;-85
2021/06/21 13:30:31;;;;;;;1.90;1.43;;;26.30;96.00;;;;;;4974904;28;20446;-92
2021/06/21 13:33:02;;;;;;;2.00;1.30;;;26.70;94.60;;;;;;4972955;28;20961;-88
2021/06/21 13:35:29;;;;;;;1.57;1.37;;;;;;;;;;4973509;28;20451;-85